createdAt,value
2019-04-14T00:00:31.558Z,1.1
2019-04-14T00:01:32.538Z,1
2019-04-14T00:02:31.574Z,1.2
2019-04-14T00:03:32.484Z,1.1
2019-04-14T00:04:31.654Z,0.9
2019-04-14T00:05:33.963Z,0.9
2019-04-14T00:06:32.899Z,0.8
2019-04-14T00:07:31.930Z,0.9
2019-04-14T00:08:32.676Z,0.7
2019-04-14T00:09:31.962Z,0.8
2019-04-14T00:10:33.230Z,0.8
2019-04-14T00:11:32.279Z,1
2019-04-14T00:12:32.239Z,0.9
2019-04-14T00:13:32.771Z,1
2019-04-14T00:14:33.536Z,1
2019-04-14T00:15:37.729Z,1
2019-04-14T00:16:33.437Z,1.1
2019-04-14T00:17:32.674Z,0.9
2019-04-14T00:18:33.645Z,1
2019-04-14T00:19:32.725Z,1.1
2019-04-14T00:20:33.655Z,1.1
2019-04-14T00:21:32.652Z,1.1
2019-04-14T00:22:33.627Z,1
2019-04-14T00:23:32.748Z,1.1
2019-04-14T00:24:33.529Z,1.1
2019-04-14T00:25:32.877Z,1
2019-04-14T00:26:33.485Z,0.8
2019-04-14T00:27:32.953Z,0.9
2019-04-14T00:28:33.592Z,0.8
2019-04-14T00:29:33.066Z,0.9
2019-04-14T00:30:33.753Z,0.8
2019-04-14T00:31:33.154Z,0.9
2019-04-14T00:32:33.430Z,1.1
2019-04-14T00:33:34.318Z,1
2019-04-14T00:34:33.315Z,1
2019-04-14T00:35:34.189Z,1
2019-04-14T00:36:34.775Z,0.9
2019-04-14T00:37:33.711Z,0.9
2019-04-14T00:38:34.550Z,0.8
2019-04-14T00:39:33.718Z,0.7
2019-04-14T00:40:34.646Z,0.8
2019-04-14T00:41:42.105Z,0.8
2019-04-14T00:42:34.164Z,1
2019-04-14T00:43:33.860Z,1.2
2019-04-14T00:44:34.060Z,1.3
2019-04-14T00:45:42.497Z,1.2
2019-04-14T00:46:35.276Z,1.1
2019-04-14T00:47:35.384Z,1.2
2019-04-14T00:48:34.250Z,1.2
2019-04-14T00:49:35.329Z,1.1
2019-04-14T00:50:34.825Z,1.1
2019-04-14T00:51:37.543Z,1.1
2019-04-14T00:52:34.422Z,1.2
2019-04-14T00:53:34.476Z,1.1
2019-04-14T00:54:34.932Z,1.1
2019-04-14T00:55:35.728Z,1
2019-04-14T00:56:34.915Z,1
2019-04-14T00:57:35.506Z,1.1
2019-04-14T00:58:34.825Z,1.1
2019-04-14T00:59:35.442Z,1.1
2019-04-14T01:00:34.921Z,1
2019-04-14T01:01:35.144Z,1.1
2019-04-14T01:02:36.347Z,1.1
2019-04-14T01:03:35.537Z,1.2
2019-04-14T01:04:36.099Z,1.3
2019-04-14T01:05:35.991Z,1.3
2019-04-14T01:06:36.073Z,1.3
2019-04-14T01:07:35.350Z,1.3
2019-04-14T01:08:35.929Z,1.3
2019-04-14T01:09:35.479Z,1.4
2019-04-14T01:10:36.764Z,1.2
2019-04-14T01:11:35.734Z,1.3
2019-04-14T01:12:36.613Z,1.3
2019-04-14T01:13:35.715Z,1.4
2019-04-14T01:14:36.547Z,1.3
2019-04-14T01:15:48.004Z,1.4
2019-04-14T01:16:36.429Z,1.3
2019-04-14T01:17:35.920Z,1.4
2019-04-14T01:18:36.423Z,1.3
2019-04-14T01:19:37.284Z,1.4
2019-04-14T01:20:36.368Z,1.4
2019-04-14T01:21:37.075Z,1.3
2019-04-14T01:22:36.267Z,1.3
2019-04-14T01:23:36.918Z,1.3
2019-04-14T01:24:36.344Z,1.3
2019-04-14T01:25:36.768Z,1.4
2019-04-14T01:26:37.712Z,1.3
2019-04-14T01:27:36.482Z,1.3
2019-04-14T01:28:37.542Z,1.3
2019-04-14T01:29:36.640Z,1.2
2019-04-14T01:30:37.278Z,1.3
2019-04-14T01:31:36.732Z,1.3
2019-04-14T01:32:37.222Z,1.4
2019-04-14T01:33:37.842Z,1.3
2019-04-14T01:34:37.067Z,1.3
2019-04-14T01:35:37.880Z,1.3
2019-04-14T01:36:37.050Z,1.3
2019-04-14T01:37:37.570Z,1.3
2019-04-14T01:38:37.148Z,1.3
2019-04-14T01:39:37.246Z,1.4
2019-04-14T01:40:38.143Z,1.5
2019-04-14T01:41:37.414Z,1.4
2019-04-14T01:42:37.707Z,1.4
2019-04-14T01:43:38.428Z,1.4
2019-04-14T01:44:37.506Z,1.3
2019-04-14T01:45:38.233Z,1.2
2019-04-14T01:46:37.600Z,1.1
2019-04-14T01:47:37.774Z,1
2019-04-14T01:48:38.831Z,1.1
2019-04-14T01:49:38.196Z,1.1
2019-04-14T01:50:38.790Z,1.1
2019-04-14T01:51:38.233Z,1.1
2019-04-14T01:52:38.454Z,1.1
2019-04-14T01:53:38.552Z,1.2
2019-04-14T01:54:38.742Z,1
2019-04-14T01:55:39.273Z,1.1
2019-04-14T01:56:38.442Z,1.1
2019-04-14T01:57:39.195Z,1.1
2019-04-14T01:58:38.348Z,1.1
2019-04-14T01:59:39.079Z,1.2
2019-04-14T02:00:38.427Z,1.2
2019-04-14T02:01:38.923Z,1.2
2019-04-14T02:02:38.543Z,1.1
2019-04-14T02:03:38.781Z,1
2019-04-14T02:04:39.810Z,1
2019-04-14T02:05:38.745Z,1
2019-04-14T02:06:39.849Z,0.9
2019-04-14T02:07:38.870Z,0.9
2019-04-14T02:08:39.332Z,1
2019-04-14T02:09:40.088Z,1
2019-04-14T02:10:39.285Z,1
2019-04-14T02:11:39.873Z,1.1
2019-04-14T02:12:39.136Z,1.1
2019-04-14T02:13:39.998Z,1.3
2019-04-14T02:14:39.296Z,1.2
2019-04-14T02:15:39.608Z,1.3
2019-04-14T02:16:45.186Z,1.2
2019-04-14T02:17:39.446Z,1.2
2019-04-14T02:18:40.554Z,1.2
2019-04-14T02:19:39.608Z,1.2
2019-04-14T02:20:40.342Z,1.3
2019-04-14T02:21:39.678Z,1.4
2019-04-14T02:22:39.842Z,1.2
2019-04-14T02:23:41.012Z,1.1
2019-04-14T02:24:39.847Z,1.2
2019-04-14T02:25:40.669Z,1.3
2019-04-14T02:26:40.077Z,1.4
2019-04-14T02:27:40.710Z,1.5
2019-04-14T02:28:40.121Z,1.4
2019-04-14T02:29:40.762Z,1.5
2019-04-14T02:30:49.162Z,1.4
2019-04-14T02:32:09.356Z,1.5
2019-04-14T02:33:03.138Z,1.5
2019-04-14T02:34:07.205Z,1.4
2019-04-14T02:37:10.074Z,1.3
2019-04-14T02:38:11.721Z,1.3
2019-04-14T02:39:05.818Z,1.2
2019-04-14T02:40:07.458Z,1.2
2019-04-14T02:41:10.459Z,1.2
2019-04-14T02:42:17.093Z,1.3
2019-04-14T02:43:02.479Z,1.3
2019-04-14T02:44:59.645Z,1.3
2019-04-14T02:46:01.473Z,1.3
2019-04-14T02:47:03.180Z,1.3
2019-04-14T02:48:14.306Z,1.3
2019-04-14T02:49:01.959Z,1.3
2019-04-14T02:50:04.404Z,1.3
2019-04-14T02:51:12.176Z,1.3
2019-04-14T02:52:03.889Z,1.1
2019-04-14T02:53:07.214Z,1
2019-04-14T02:55:02.717Z,1
2019-04-14T02:57:09.496Z,1
2019-04-14T02:58:09.712Z,1
2019-04-14T02:59:03.388Z,1.1
2019-04-14T03:00:07.480Z,1.2
2019-04-14T03:01:14.318Z,1.3
2019-04-14T03:02:22.731Z,1.2
2019-04-14T03:03:08.672Z,1.2
2019-04-14T03:03:55.770Z,1.1
2019-04-14T03:05:01.546Z,1
2019-04-14T03:05:57.410Z,1
2019-04-14T03:07:04.519Z,1.2
2019-04-14T03:08:06.221Z,1.3
2019-04-14T03:09:18.768Z,1.3
2019-04-14T03:10:00.527Z,1.4
2019-04-14T03:12:09.000Z,1.5
2019-04-14T03:13:12.873Z,1.6
2019-04-14T03:14:06.022Z,1.5
2019-04-14T03:15:06.759Z,1.5
2019-04-14T03:16:13.471Z,1.6
2019-04-14T03:17:20.904Z,1.4
2019-04-14T03:18:23.743Z,1.4
2019-04-14T03:19:06.040Z,1.2
2019-04-14T03:20:13.467Z,1.1
2019-04-14T03:21:03.258Z,1
2019-04-14T03:22:12.130Z,1.2
2019-04-14T03:23:16.887Z,1.2
2019-04-14T03:24:08.565Z,1.2
2019-04-14T03:24:54.922Z,1.3
2019-04-14T03:26:04.538Z,1.3
2019-04-14T03:27:13.156Z,1.3
2019-04-14T03:28:06.524Z,1.2
2019-04-14T03:29:05.135Z,1.1
2019-04-14T03:30:16.057Z,1.2
2019-04-14T03:34:20.787Z,1.1
2019-04-14T03:35:34.697Z,1.2
2019-04-14T03:36:57.645Z,1.3
2019-04-14T03:38:12.499Z,1.2
2019-04-14T03:39:05.577Z,1.2
2019-04-14T03:40:08.131Z,1.2
2019-04-14T03:41:16.174Z,1.1
2019-04-14T03:42:08.287Z,1.1
2019-04-14T03:43:18.156Z,1.1
2019-04-14T03:44:09.413Z,1.2
2019-04-14T03:45:03.382Z,1.3
2019-04-14T03:47:13.048Z,1.3
2019-04-14T03:50:05.704Z,1.3
2019-04-14T03:52:01.881Z,1.2
2019-04-14T03:53:15.625Z,1.3
2019-04-14T03:54:02.754Z,1.3
2019-04-14T03:55:00.681Z,1.4
2019-04-14T03:55:52.075Z,1.3
2019-04-14T03:56:46.234Z,1.2
2019-04-14T03:57:45.547Z,1.4
2019-04-14T03:58:46.282Z,1.5
2019-04-14T03:59:45.680Z,1.6
2019-04-14T04:00:46.484Z,1.8
2019-04-14T04:01:45.742Z,1.7
2019-04-14T04:02:46.602Z,1.6
2019-04-14T04:03:45.781Z,1.6
2019-04-14T04:04:46.660Z,1.8
2019-04-14T04:05:45.747Z,1.7
2019-04-14T04:06:46.380Z,1.7
2019-04-14T04:07:45.916Z,1.6
2019-04-14T04:08:46.408Z,1.6
2019-04-14T04:09:46.031Z,1.5
2019-04-14T04:10:46.570Z,1.7
2019-04-14T04:11:47.574Z,1.6
2019-04-14T04:12:46.601Z,1.7
2019-04-14T04:13:47.727Z,1.8
2019-04-14T04:14:46.521Z,1.8
2019-04-14T04:15:47.565Z,1.7
2019-04-14T04:16:46.452Z,1.7
2019-04-14T04:17:47.278Z,1.7
2019-04-14T04:18:56.083Z,1.7
2019-04-14T04:19:46.968Z,1.8
2019-04-14T04:20:47.703Z,1.9
2019-04-14T04:21:46.755Z,1.9
2019-04-14T04:22:47.629Z,1.9
2019-04-14T04:23:46.876Z,1.7
2019-04-14T04:24:47.559Z,1.6
2019-04-14T04:25:46.990Z,1.6
2019-04-14T04:26:47.253Z,1.5
2019-04-14T04:27:48.281Z,1.5
2019-04-14T04:28:47.198Z,1.7
2019-04-14T04:29:48.214Z,1.7
2019-04-14T04:30:47.255Z,1.6
2019-04-14T04:31:48.236Z,1.8
2019-04-14T04:32:47.380Z,1.8
2019-04-14T04:33:47.907Z,1.8
2019-04-14T04:34:47.455Z,1.9
2019-04-14T04:35:47.870Z,1.7
2019-04-14T04:36:48.545Z,1.7
2019-04-14T04:37:47.685Z,1.9
2019-04-14T04:38:48.760Z,1.8
2019-04-14T04:39:47.748Z,1.7
2019-04-14T04:40:48.547Z,1.8
2019-04-14T04:41:47.904Z,1.7
2019-04-14T04:42:48.335Z,1.5
2019-04-14T04:43:48.029Z,1.7
2019-04-14T04:44:48.764Z,1.6
2019-04-14T04:45:48.111Z,1.7
2019-04-14T04:46:48.416Z,1.8
2019-04-14T04:47:49.182Z,1.8
2019-04-14T04:48:59.727Z,1.9
2019-04-14T04:49:48.995Z,2.1
2019-04-14T04:50:48.386Z,1.9
2019-04-14T04:51:48.673Z,1.8
2019-04-14T04:52:49.370Z,1.9
2019-04-14T04:53:48.571Z,2
2019-04-14T04:54:49.580Z,1.9
2019-04-14T04:55:48.637Z,1.7
2019-04-14T04:56:49.348Z,1.7
2019-04-14T04:57:48.743Z,1.7
2019-04-14T04:58:48.822Z,1.9
2019-04-14T04:59:49.607Z,1.9
2019-04-14T05:00:51.332Z,1.9
2019-04-14T05:01:49.396Z,1.7
2019-04-14T05:02:49.025Z,1.7
2019-04-14T05:03:49.296Z,1.8
2019-04-14T05:04:49.147Z,1.8
2019-04-14T05:05:49.298Z,1.8
2019-04-14T05:06:50.394Z,2
2019-04-14T05:07:49.359Z,2.1
2019-04-14T05:08:50.223Z,2.1
2019-04-14T05:09:49.477Z,2.1
2019-04-14T05:10:50.270Z,2.2
2019-04-14T05:11:52.461Z,2.1
2019-04-14T05:12:50.138Z,2.1
2019-04-14T05:13:49.678Z,2.1
2019-04-14T05:14:50.105Z,2
2019-04-14T05:15:50.936Z,1.8
2019-04-14T05:16:50.736Z,1.8
2019-04-14T05:17:51.663Z,1.6
2019-04-14T05:18:50.842Z,1.8
2019-04-14T05:19:50.015Z,1.9
2019-04-14T05:20:50.981Z,1.8
2019-04-14T05:21:51.628Z,1.9
2019-04-14T05:22:50.791Z,2
2019-04-14T05:23:51.599Z,1.9
2019-04-14T05:24:50.715Z,2
2019-04-14T05:25:51.569Z,1.9
2019-04-14T05:26:51.016Z,1.8
2019-04-14T05:27:51.497Z,1.9
2019-04-14T05:28:50.699Z,2
2019-04-14T05:29:51.553Z,2
2019-04-14T05:30:50.587Z,2
2019-04-14T05:31:51.129Z,1.9
2019-04-14T05:32:50.683Z,2
2019-04-14T05:33:51.140Z,2.1
2019-04-14T05:34:50.783Z,2.2
2019-04-14T05:35:51.309Z,2.3
2019-04-14T05:36:52.057Z,2.2
2019-04-14T05:37:50.951Z,2.2
2019-04-14T05:38:51.895Z,2.2
2019-04-14T05:39:52.673Z,2.1
2019-04-14T05:40:51.778Z,2
2019-04-14T05:41:59.803Z,2.1
2019-04-14T05:42:52.255Z,2.2
2019-04-14T05:43:55.459Z,2.3
2019-04-14T05:44:53.578Z,2.3
2019-04-14T05:45:52.289Z,2.1
2019-04-14T05:46:52.045Z,2.2
2019-04-14T05:47:52.252Z,2.2
2019-04-14T05:48:54.154Z,2.1
2019-04-14T05:49:54.349Z,2.2
2019-04-14T05:50:53.378Z,2.1
2019-04-14T05:51:52.404Z,2.1
2019-04-14T05:52:51.803Z,2.2
2019-04-14T05:53:52.368Z,2.3
2019-04-14T05:54:52.040Z,2.3
2019-04-14T05:55:52.516Z,2.4
2019-04-14T05:56:52.235Z,2.4
2019-04-14T05:57:52.595Z,2.4
2019-04-14T05:58:52.171Z,2.5
2019-04-14T05:59:52.757Z,2.5
2019-04-14T06:00:53.349Z,2.4
2019-04-14T06:01:52.313Z,2.5
2019-04-14T06:02:52.708Z,2.5
2019-04-14T06:03:52.451Z,2.5
2019-04-14T06:04:53.369Z,2.4
2019-04-14T06:05:52.553Z,2.4
2019-04-14T06:06:52.955Z,2.5
2019-04-14T06:07:55.412Z,2.4
2019-04-14T06:08:54.422Z,2.3
2019-04-14T06:09:52.769Z,2.2
2019-04-14T06:10:52.833Z,2.2
2019-04-14T06:11:52.917Z,2.3
2019-04-14T06:12:52.973Z,2.2
2019-04-14T06:13:55.079Z,2.3
2019-04-14T06:14:54.962Z,2.4
2019-04-14T06:15:54.441Z,2.3
2019-04-14T06:16:53.190Z,2.2
2019-04-14T06:17:54.353Z,2.3
2019-04-14T06:18:54.615Z,2.5
2019-04-14T06:19:55.851Z,2.6
2019-04-14T06:20:54.381Z,2.6
2019-04-14T06:21:53.534Z,2.7
2019-04-14T06:22:53.759Z,2.7
2019-04-14T06:23:54.931Z,2.6
2019-04-14T06:24:54.020Z,2.6
2019-04-14T06:25:53.756Z,2.4
2019-04-14T06:26:53.839Z,2.3
2019-04-14T06:27:53.927Z,2.4
2019-04-14T06:28:54.132Z,2.6
2019-04-14T06:29:53.933Z,2.5
2019-04-14T06:30:53.961Z,2.5
2019-04-14T06:31:54.027Z,2.5
2019-04-14T06:32:54.099Z,2.5
2019-04-14T06:33:54.156Z,2.6
2019-04-14T06:34:54.206Z,2.8
2019-04-14T06:35:54.289Z,2.9
2019-04-14T06:36:54.322Z,2.8
2019-04-14T06:37:54.515Z,2.7
2019-04-14T06:38:54.575Z,2.7
2019-04-14T06:39:54.471Z,2.8
2019-04-14T06:40:54.511Z,2.8
2019-04-14T06:41:54.756Z,2.8
2019-04-14T06:42:54.744Z,3
2019-04-14T06:43:54.661Z,3.1
2019-04-14T06:44:54.736Z,3.2
2019-04-14T06:45:54.822Z,3.1
2019-04-14T06:46:54.856Z,3.1
2019-04-14T06:47:54.964Z,3
2019-04-14T06:48:54.949Z,3.1
2019-04-14T06:49:55.050Z,3.2
2019-04-14T06:50:55.072Z,3.2
2019-04-14T06:51:55.147Z,3.2
2019-04-14T06:52:55.191Z,3.3
2019-04-14T06:53:55.281Z,3.3
2019-04-14T06:54:55.322Z,3.4
2019-04-14T06:55:55.346Z,3.4
2019-04-14T06:56:55.410Z,3.5
2019-04-14T06:57:55.546Z,3.6
2019-04-14T06:58:55.517Z,3.6
2019-04-14T06:59:55.858Z,3.5
2019-04-14T07:00:55.717Z,3.5
2019-04-14T07:01:56.074Z,3.4
2019-04-14T07:02:56.347Z,3.3
2019-04-14T07:03:55.815Z,3.2
2019-04-14T07:04:55.888Z,3.2
2019-04-14T07:05:55.942Z,3.3
2019-04-14T07:06:55.992Z,3.5
2019-04-14T07:07:57.102Z,3.6
2019-04-14T07:08:56.083Z,3.7
2019-04-14T07:09:56.385Z,3.7
2019-04-14T07:10:56.446Z,3.7
2019-04-14T07:11:56.356Z,3.7
2019-04-14T07:12:56.331Z,3.9
2019-04-14T07:13:56.414Z,3.9
2019-04-14T07:14:56.814Z,3.8
2019-04-14T07:15:56.658Z,3.8
2019-04-14T07:16:56.571Z,3.9
2019-04-14T07:17:56.678Z,4
2019-04-14T07:18:56.724Z,4
2019-04-14T07:20:02.079Z,4.1
2019-04-14T07:20:56.871Z,4
2019-04-14T07:21:56.925Z,3.9
2019-04-14T07:22:56.936Z,4.1
2019-04-14T07:23:56.974Z,4
2019-04-14T07:24:57.049Z,4
2019-04-14T07:25:57.114Z,4
2019-04-14T07:26:57.166Z,4
2019-04-14T07:27:57.211Z,4
2019-04-14T07:28:57.267Z,4.2
2019-04-14T07:29:57.317Z,4.3
2019-04-14T07:30:57.388Z,4.3
2019-04-14T07:31:57.448Z,4.2
2019-04-14T07:32:57.518Z,4.2
2019-04-14T07:33:57.579Z,4.2
2019-04-14T07:34:57.657Z,4.2
2019-04-14T07:35:57.734Z,4.2
2019-04-14T07:36:57.767Z,4.3
2019-04-14T07:37:57.840Z,4.4
2019-04-14T07:38:58.116Z,4.5
2019-04-14T07:39:57.965Z,4.5
2019-04-14T07:40:58.171Z,4.5
2019-04-14T07:41:58.078Z,4.5
2019-04-14T07:42:58.242Z,4.6
2019-04-14T07:43:58.168Z,4.7
2019-04-14T07:44:58.250Z,4.9
2019-04-14T07:45:58.297Z,5
2019-04-14T07:46:58.366Z,5
2019-04-14T07:47:58.417Z,5.2
2019-04-14T07:48:58.433Z,5.3
2019-04-14T07:49:58.502Z,5.3
2019-04-14T07:50:58.903Z,5.3
2019-04-14T07:51:58.636Z,5.3
2019-04-14T07:52:58.660Z,5.3
2019-04-14T07:53:58.784Z,5.4
2019-04-14T07:54:58.785Z,5.5
2019-04-14T07:55:58.831Z,5.7
2019-04-14T07:56:58.877Z,5.5
2019-04-14T07:57:58.976Z,5.5
2019-04-14T07:58:59.642Z,5.6
2019-04-14T07:59:59.015Z,5.8
2019-04-14T08:00:59.093Z,5.9
2019-04-14T08:01:59.116Z,5.9
2019-04-14T08:02:59.165Z,5.8
2019-04-14T08:03:59.242Z,5.8
2019-04-14T08:04:59.310Z,6.1
2019-04-14T08:05:59.368Z,6.2
2019-04-14T08:06:59.441Z,6.2
2019-04-14T08:07:59.535Z,6.2
2019-04-14T08:08:59.878Z,6.4
2019-04-14T08:09:59.609Z,6.4
2019-04-14T08:10:59.780Z,6.8
2019-04-14T08:11:59.713Z,7
2019-04-14T08:12:59.805Z,6.9
2019-04-14T08:13:59.834Z,6.8
2019-04-14T08:14:59.914Z,24.3
2019-04-14T08:16:00.065Z,6.9
2019-04-14T08:17:00.043Z,6.9
2019-04-14T08:18:00.501Z,7
2019-04-14T08:19:00.663Z,7.2
2019-04-14T08:20:00.544Z,7.2
2019-04-14T08:21:00.648Z,7.1
2019-04-14T08:22:00.569Z,7.2
2019-04-14T08:23:00.475Z,7.2
2019-04-14T08:24:00.568Z,7
2019-04-14T08:25:00.508Z,7.2
2019-04-14T08:26:00.527Z,7.5
2019-04-14T08:27:00.576Z,7.6
2019-04-14T08:28:00.776Z,7.6
2019-04-14T08:29:18.857Z,7.6
2019-04-14T08:30:00.823Z,7.9
2019-04-14T08:31:01.044Z,7.8
2019-04-14T08:32:00.820Z,7.6
2019-04-14T08:33:00.876Z,7.6
2019-04-14T08:34:01.544Z,7.5
2019-04-14T08:35:01.688Z,7.6
2019-04-14T08:36:01.091Z,7.6
2019-04-14T08:37:01.248Z,7.7
2019-04-14T08:38:01.198Z,7.8
2019-04-14T08:39:01.426Z,7.9
2019-04-14T08:40:01.317Z,8.3
2019-04-14T08:41:01.358Z,8.6
2019-04-14T08:42:01.428Z,8.5
2019-04-14T08:43:01.704Z,8.4
2019-04-14T08:44:01.524Z,8.2
2019-04-14T08:45:01.657Z,8.2
2019-04-14T08:46:01.629Z,8.1
2019-04-14T08:47:01.737Z,8
2019-04-14T08:48:01.786Z,8.1
2019-04-14T08:49:01.837Z,7.9
2019-04-14T08:50:01.883Z,8.2
2019-04-14T08:51:02.534Z,8.6
2019-04-14T08:52:02.014Z,9.1
2019-04-14T08:53:02.246Z,9.1
2019-04-14T08:54:02.141Z,8.9
2019-04-14T08:55:02.260Z,8.9
2019-04-14T08:56:02.360Z,8.4
2019-04-14T08:57:02.618Z,8.4
2019-04-14T08:58:04.137Z,8.5
2019-04-14T08:59:02.428Z,8.6
2019-04-14T09:00:02.477Z,8.7
2019-04-14T09:01:02.573Z,9.2
2019-04-14T09:02:02.541Z,9.2
2019-04-14T09:03:02.660Z,9.1
2019-04-14T09:04:02.748Z,9
2019-04-14T09:05:02.722Z,9.2
2019-04-14T09:06:02.778Z,9.2
2019-04-14T09:07:02.834Z,9.3
2019-04-14T09:08:02.892Z,9.6
2019-04-14T09:09:03.273Z,9.8
2019-04-14T09:10:03.106Z,9.6
2019-04-14T09:11:03.168Z,9.7
2019-04-14T09:12:14.728Z,9.3
2019-04-14T09:13:03.695Z,9.3
2019-04-14T09:14:03.252Z,9.6
2019-04-14T09:15:03.686Z,9.7
2019-04-14T09:16:03.885Z,10
2019-04-14T09:17:03.490Z,9.9
2019-04-14T09:18:03.452Z,10
2019-04-14T09:19:07.706Z,10.1
2019-04-14T09:20:09.163Z,10.3
2019-04-14T09:21:03.620Z,9.8
2019-04-14T09:22:03.677Z,9.4
2019-04-14T09:23:03.794Z,9.4
2019-04-14T09:24:03.823Z,9.6
2019-04-14T09:25:03.885Z,10
2019-04-14T09:26:03.878Z,10.1
2019-04-14T09:27:03.931Z,10.3
2019-04-14T09:28:04.075Z,10.2
2019-04-14T09:29:04.062Z,10.3
2019-04-14T09:30:04.113Z,10
2019-04-14T09:31:04.171Z,10
2019-04-14T09:32:04.197Z,9.7
2019-04-14T09:33:04.329Z,9.3
2019-04-14T09:34:04.329Z,9.3
2019-04-14T09:35:04.401Z,9.9
2019-04-14T09:36:04.446Z,9.9
2019-04-14T09:37:04.514Z,10.2
2019-04-14T09:38:04.560Z,10.3
2019-04-14T09:39:04.606Z,10.5
2019-04-14T09:40:04.669Z,10.5
2019-04-14T09:41:04.765Z,10.1
2019-04-14T09:42:04.824Z,10
2019-04-14T09:43:04.907Z,10.3
2019-04-14T09:44:04.949Z,10.1
2019-04-14T09:45:04.999Z,10.2
2019-04-14T09:46:05.050Z,10.2
2019-04-14T09:47:05.183Z,18.4
2019-04-14T09:48:05.171Z,18.2
2019-04-14T09:49:05.235Z,10.3
2019-04-14T09:50:05.299Z,10.5
2019-04-14T09:51:05.446Z,10.5
2019-04-14T09:52:05.424Z,10.5
2019-04-14T09:53:05.450Z,10.6
2019-04-14T09:54:05.525Z,10.4
2019-04-14T09:55:05.591Z,10
2019-04-14T09:56:05.636Z,10.1
2019-04-14T09:57:05.701Z,10.3
2019-04-14T09:58:05.805Z,10.4
2019-04-14T09:59:05.844Z,11
2019-04-14T10:00:05.927Z,19.3
2019-04-14T10:01:05.918Z,11
2019-04-14T10:02:05.985Z,11.1
2019-04-14T10:03:06.077Z,11.1
2019-04-14T10:04:06.060Z,10.7
2019-04-14T10:05:06.121Z,10.4
2019-04-14T10:06:06.222Z,10.4
2019-04-14T10:07:06.245Z,10.5
2019-04-14T10:08:06.361Z,10.6
2019-04-14T10:09:06.387Z,10.8
2019-04-14T10:10:06.436Z,10.8
2019-04-14T10:11:06.567Z,10.9
2019-04-14T10:12:06.523Z,11
2019-04-14T10:13:06.572Z,11.1
2019-04-14T10:14:06.658Z,11.7
2019-04-14T10:15:06.679Z,11.4
2019-04-14T10:16:07.717Z,11.3
2019-04-14T10:17:09.925Z,12
2019-04-14T10:18:07.729Z,12.6
2019-04-14T10:19:06.967Z,12.5
2019-04-14T10:20:07.933Z,12.4
2019-04-14T10:21:16.357Z,12.2
2019-04-14T10:22:07.099Z,12.4
2019-04-14T10:23:07.208Z,12.4
2019-04-14T10:24:07.240Z,11.8
2019-04-14T10:25:07.306Z,12.2
2019-04-14T10:26:07.518Z,12.6
2019-04-14T10:27:07.458Z,12.4
2019-04-14T10:28:08.001Z,12.4
2019-04-14T10:29:07.511Z,12.2
2019-04-14T10:30:07.594Z,12.5
2019-04-14T10:31:07.639Z,12.4
2019-04-14T10:32:09.708Z,12.3
2019-04-14T10:33:07.867Z,12.4
2019-04-14T10:34:10.034Z,12.3
2019-04-14T10:35:07.917Z,12.5
2019-04-14T10:36:11.040Z,12.3
2019-04-14T10:37:08.055Z,12.6
2019-04-14T10:38:08.302Z,13
2019-04-14T10:39:08.137Z,13.2
2019-04-14T10:40:08.209Z,13.4
2019-04-14T10:41:08.298Z,13
2019-04-14T10:42:08.322Z,12.7
2019-04-14T10:43:08.364Z,12.9
2019-04-14T10:44:08.409Z,13.3
2019-04-14T10:45:08.519Z,13.4
2019-04-14T10:46:08.541Z,13.7
2019-04-14T10:47:08.581Z,13.4
2019-04-14T10:48:08.703Z,13.1
2019-04-14T10:49:08.740Z,13.4
2019-04-14T10:50:08.772Z,13.4
2019-04-14T10:51:08.838Z,13.2
2019-04-14T10:52:08.912Z,13
2019-04-14T10:53:08.949Z,12.5
2019-04-14T10:54:09.034Z,12.2
2019-04-14T10:55:09.225Z,12.7
2019-04-14T10:56:09.161Z,13.1
2019-04-14T10:57:09.184Z,13.3
2019-04-14T10:58:09.276Z,13.4
2019-04-14T10:59:09.321Z,13
2019-04-14T11:00:09.466Z,12.4
2019-04-14T11:01:09.450Z,11.9
2019-04-14T11:02:09.516Z,20.4
2019-04-14T11:03:09.556Z,12.3
2019-04-14T11:04:09.607Z,28.7
2019-04-14T11:05:09.654Z,12.4
2019-04-14T11:06:09.738Z,12.5
2019-04-14T11:07:09.787Z,12.7
2019-04-14T11:08:09.820Z,12.9
2019-04-14T11:09:09.884Z,13.2
2019-04-14T11:10:09.960Z,13.1
2019-04-14T11:11:09.996Z,13
2019-04-14T11:12:10.060Z,13.4
2019-04-14T11:13:10.139Z,13
2019-04-14T11:14:10.170Z,12.7
2019-04-14T11:15:10.216Z,12.2
2019-04-14T11:16:10.264Z,11.8
2019-04-14T11:17:10.341Z,11.6
2019-04-14T11:18:10.395Z,11.8
2019-04-14T11:19:10.471Z,11.7
2019-04-14T11:20:10.548Z,12.2
2019-04-14T11:21:10.601Z,12.3
2019-04-14T11:22:10.682Z,12.2
2019-04-14T11:23:10.717Z,20.5
2019-04-14T11:24:10.950Z,12.2
2019-04-14T11:25:10.872Z,12.1
2019-04-14T11:26:10.876Z,11.9
2019-04-14T11:27:10.917Z,27.7
2019-04-14T11:28:10.984Z,11.4
2019-04-14T11:29:11.085Z,11.9
2019-04-14T11:30:11.074Z,12.5
2019-04-14T11:31:11.149Z,12.8
2019-04-14T11:32:11.194Z,12.8
2019-04-14T11:33:11.288Z,12.5
2019-04-14T11:34:11.312Z,12.4
2019-04-14T11:35:11.383Z,12.7
2019-04-14T11:36:11.491Z,12.8
2019-04-14T11:37:11.675Z,13.5
2019-04-14T11:38:11.594Z,13.3
2019-04-14T11:39:11.630Z,13.2
2019-04-14T11:40:11.686Z,12.9
2019-04-14T11:41:11.859Z,12.8
2019-04-14T11:42:11.811Z,12.7
2019-04-14T11:43:11.848Z,12.8
2019-04-14T11:44:11.968Z,13.1
2019-04-14T11:45:11.925Z,13.3
2019-04-14T11:46:12.008Z,13.4
2019-04-14T11:47:12.082Z,14.3
2019-04-14T11:48:12.118Z,14.2
2019-04-14T11:49:12.173Z,13.9
2019-04-14T11:50:12.260Z,13.9
2019-04-14T11:51:12.258Z,37.9
2019-04-14T11:52:12.305Z,14.2
2019-04-14T11:53:12.360Z,13
2019-04-14T11:54:12.380Z,12.7
2019-04-14T11:55:12.453Z,12.9
2019-04-14T11:56:12.519Z,13.5
2019-04-14T11:57:12.580Z,13.7
2019-04-14T11:58:12.655Z,13.4
2019-04-14T11:59:12.700Z,29.4
2019-04-14T12:00:12.761Z,13.8
2019-04-14T12:01:12.789Z,14.9
2019-04-14T12:02:12.860Z,14.9
2019-04-14T12:03:12.905Z,14.1
2019-04-14T12:04:12.921Z,13.9
2019-04-14T12:05:13.053Z,21.8
2019-04-14T12:06:13.033Z,13.5
2019-04-14T12:07:13.135Z,13.1
2019-04-14T12:08:13.164Z,12.9
2019-04-14T12:09:13.241Z,12.5
2019-04-14T12:10:13.343Z,12.4
2019-04-14T12:11:13.349Z,12.6
2019-04-14T12:12:13.373Z,12.2
2019-04-14T12:13:13.438Z,12.1
2019-04-14T12:14:13.487Z,12.1
2019-04-14T12:15:16.479Z,12.3
2019-04-14T12:16:13.601Z,12.8
2019-04-14T12:17:13.831Z,13.2
2019-04-14T12:18:13.737Z,13.4
2019-04-14T12:19:13.785Z,13.4
2019-04-14T12:20:13.937Z,13.3
2019-04-14T12:21:13.908Z,13.5
2019-04-14T12:22:13.958Z,13.2
2019-04-14T12:23:15.988Z,13.4
2019-04-14T12:24:14.105Z,14
2019-04-14T12:25:14.156Z,14.2
2019-04-14T12:26:14.196Z,13.6
2019-04-14T12:27:14.211Z,13.4
2019-04-14T12:28:14.284Z,14
2019-04-14T12:29:14.350Z,14.2
2019-04-14T12:30:15.721Z,13.7
2019-04-14T12:31:15.248Z,13.4
2019-04-14T12:32:15.071Z,13.6
2019-04-14T12:33:14.542Z,13.9
2019-04-14T12:34:14.594Z,14
2019-04-14T12:35:14.820Z,14
2019-04-14T12:36:15.132Z,14
2019-04-14T12:37:14.764Z,13.8
2019-04-14T12:38:15.949Z,14
2019-04-14T12:39:15.292Z,13.6
2019-04-14T12:40:15.047Z,13.6
2019-04-14T12:41:17.687Z,13.4
2019-04-14T12:42:15.238Z,13.5
2019-04-14T12:43:15.243Z,14.1
2019-04-14T12:44:15.214Z,13.7
2019-04-14T12:45:15.265Z,14
2019-04-14T12:46:15.316Z,14
2019-04-14T12:47:15.404Z,13.9
2019-04-14T12:48:15.441Z,13.8
2019-04-14T12:49:15.513Z,14
2019-04-14T12:50:15.542Z,14.1
2019-04-14T12:51:15.588Z,14.1
2019-04-14T12:52:21.254Z,14.3
2019-04-14T12:53:15.686Z,14.5
2019-04-14T12:54:15.741Z,14.7
2019-04-14T12:55:15.801Z,14.3
2019-04-14T12:56:15.866Z,14.2
2019-04-14T12:57:15.900Z,14.6
2019-04-14T12:58:15.931Z,14.2
2019-04-14T12:59:16.007Z,14.3
2019-04-14T13:00:16.096Z,14.4
2019-04-14T13:01:16.146Z,14.7
2019-04-14T13:02:16.188Z,14.6
2019-04-14T13:03:16.284Z,14.4
2019-04-14T13:04:16.366Z,14.2
2019-04-14T13:05:16.391Z,13.8
2019-04-14T13:06:16.480Z,13.7
2019-04-14T13:07:16.480Z,21.6
2019-04-14T13:08:16.548Z,14.2
2019-04-14T13:09:16.605Z,14.1
2019-04-14T13:10:16.660Z,13.9
2019-04-14T13:11:16.744Z,14.1
2019-04-14T13:12:16.772Z,14.4
2019-04-14T13:13:16.846Z,14.8
2019-04-14T13:14:16.916Z,14.9
2019-04-14T13:15:16.931Z,14.9
2019-04-14T13:16:17.006Z,14.4
2019-04-14T13:17:17.080Z,13.8
2019-04-14T13:18:17.099Z,14.1
2019-04-14T13:19:17.172Z,14.2
2019-04-14T13:20:17.219Z,14.2
2019-04-14T13:21:17.207Z,14.1
2019-04-14T13:22:17.300Z,14.2
2019-04-14T13:23:17.345Z,14.2
2019-04-14T13:24:17.408Z,14.4
2019-04-14T13:25:17.469Z,14.5
2019-04-14T13:26:17.963Z,14.5
2019-04-14T13:27:17.578Z,14.3
2019-04-14T13:28:17.640Z,14.3
2019-04-14T13:29:17.683Z,14.5
2019-04-14T13:30:17.760Z,14.8
2019-04-14T13:31:17.809Z,15
2019-04-14T13:32:17.862Z,15.3
2019-04-14T13:33:17.910Z,15.3
2019-04-14T13:34:17.996Z,15
2019-04-14T13:35:18.032Z,15.1
2019-04-14T13:36:18.073Z,15.1
2019-04-14T13:37:18.133Z,15.2
2019-04-14T13:38:18.190Z,14.9
2019-04-14T13:39:18.273Z,14.5
2019-04-14T13:40:18.559Z,14.2
2019-04-14T13:41:18.656Z,14.3
2019-04-14T13:42:18.797Z,14.5
2019-04-14T13:43:18.498Z,14.7
2019-04-14T13:44:18.595Z,14.8
2019-04-14T13:45:18.706Z,14.8
2019-04-14T13:46:18.673Z,14.6
2019-04-14T13:47:18.729Z,14.6
2019-04-14T13:48:18.756Z,14.1
2019-04-14T13:49:18.896Z,14.4
2019-04-14T13:50:18.850Z,14.5
2019-04-14T13:51:18.903Z,14.7
2019-04-14T13:52:18.970Z,14.7
2019-04-14T13:53:19.006Z,14.7
2019-04-14T13:54:19.070Z,14.6
2019-04-14T13:55:19.092Z,14.7
2019-04-14T13:56:19.168Z,14.6
2019-04-14T13:57:19.215Z,14.6